Time;durP1;ratioP1;P1;durP2;ratioP2;P2;SDS_P1;SDS_P2;PMS_P1;PMS_P2;Temp;Humidity;BMP_temperature;BMP_pressure;BME280_temperature;BME280_humidity;BME280_pressure;Samples;Min_cycle;Max_cycle;Signal;HPM_P1;HPM_P2
2022/05/08 00:01:14;;;;;;;12.13;6.67;;;11.10;99.90;;;;;;5032949;28;20460;-60
2022/05/08 00:03:41;;;;;;;18.70;6.67;;;10.90;99.90;;;;;;5033272;28;20442;-59
2022/05/08 00:06:10;;;;;;;9.70;6.80;;;10.80;99.90;;;;;;5033136;28;20473;-59
2022/05/08 00:08:38;;;;;;;11.82;5.25;;;10.70;99.90;;;;;;5033200;28;20449;-61
2022/05/08 00:11:06;;;;;;;13.70;5.55;;;10.70;99.90;;;;;;5032888;28;20238;-60
2022/05/08 00:13:35;;;;;;;18.00;6.63;;;10.60;99.90;;;;;;5032785;28;20199;-59
2022/05/08 00:16:02;;;;;;;9.65;5.53;;;10.50;99.90;;;;;;5032979;28;20462;-58
2022/05/08 00:18:32;;;;;;;17.43;5.87;;;10.50;99.90;;;;;;5032757;28;20203;-59
2022/05/08 00:20:59;;;;;;;13.65;6.13;;;10.40;99.90;;;;;;5032956;28;20453;-60
2022/05/08 00:23:26;;;;;;;19.67;6.60;;;10.40;99.90;;;;;;5032899;28;20199;-60
2022/05/08 00:25:53;;;;;;;13.95;5.82;;;10.30;99.90;;;;;;5035838;28;20218;-59
2022/05/08 00:28:20;;;;;;;11.98;5.93;;;10.30;99.90;;;;;;5037496;28;20208;-59
2022/05/08 00:30:47;;;;;;;14.57;5.75;;;10.30;99.90;;;;;;5037019;28;20198;-59
2022/05/08 00:33:14;;;;;;;12.90;5.93;;;10.20;99.90;;;;;;5036977;28;20206;-59
2022/05/08 00:35:43;;;;;;;19.60;5.38;;;10.20;99.90;;;;;;5036919;28;20225;-58
2022/05/08 00:38:10;;;;;;;11.75;6.07;;;10.20;99.90;;;;;;5037192;28;20573;-60
2022/05/08 00:40:38;;;;;;;14.23;4.63;;;10.10;99.90;;;;;;5037011;28;20202;-60
2022/05/08 00:43:28;;;;;;;17.02;5.90;;;10.10;99.90;;;;;;5036962;28;20232;-59
2022/05/08 00:45:56;;;;;;;26.40;6.25;;;10.10;99.90;;;;;;5036556;28;20225;-61
2022/05/08 00:48:23;;;;;;;12.82;5.20;;;10.00;99.90;;;;;;5036764;28;20628;-61
2022/05/08 00:50:52;;;;;;;15.50;5.68;;;10.00;99.90;;;;;;5036420;28;20328;-59
2022/05/08 00:53:19;;;;;;;14.77;5.28;;;10.00;99.90;;;;;;5036769;28;20631;-59
2022/05/08 00:55:47;;;;;;;18.02;5.13;;;10.00;99.90;;;;;;5036382;28;20311;-59
2022/05/08 00:58:15;;;;;;;17.98;4.45;;;9.90;99.90;;;;;;5036484;28;20209;-60
2022/05/08 01:00:42;;;;;;;15.25;5.05;;;9.90;99.90;;;;;;5036491;28;20260;-59
2022/05/08 01:03:11;;;;;;;12.95;4.88;;;9.90;99.90;;;;;;5036167;28;20206;-58
2022/05/08 01:05:41;;;;;;;14.25;5.25;;;9.80;99.90;;;;;;5036073;28;20522;-60
2022/05/08 01:08:10;;;;;;;15.02;6.82;;;9.80;99.90;;;;;;5036240;28;20276;-59
2022/05/08 01:10:38;;;;;;;13.85;5.22;;;9.80;99.90;;;;;;5035914;28;20205;-60
2022/05/08 01:13:06;;;;;;;20.08;5.93;;;9.70;99.90;;;;;;5036244;28;20229;-59
2022/05/08 01:15:41;;;;;;;17.10;4.75;;;9.70;99.90;;;;;;5035793;28;20712;-59
2022/05/08 01:18:08;;;;;;;14.02;4.68;;;9.60;99.90;;;;;;5036232;28;20186;-59
2022/05/08 01:20:35;;;;;;;13.25;4.82;;;9.60;99.90;;;;;;5036107;28;20253;-60
2022/05/08 01:23:05;;;;;;;17.35;5.18;;;9.50;99.90;;;;;;5036094;28;20209;-58
2022/05/08 01:25:33;;;;;;;11.38;4.45;;;9.40;99.90;;;;;;5036952;28;20205;-58
2022/05/08 01:28:00;;;;;;;11.38;4.78;;;9.40;99.90;;;;;;5036997;28;20298;-59
2022/05/08 01:30:27;;;;;;;10.55;4.97;;;9.30;99.90;;;;;;5038788;28;20202;-58
2022/05/08 01:32:57;;;;;;;11.50;4.90;;;9.30;99.90;;;;;;5037183;28;20210;-59
2022/05/08 01:35:25;;;;;;;14.82;4.55;;;9.20;99.90;;;;;;5037494;28;20276;-58
2022/05/08 01:37:52;;;;;;;13.85;4.20;;;9.20;99.90;;;;;;5035260;28;20226;-59
2022/05/08 01:40:20;;;;;;;16.52;5.38;;;9.10;99.90;;;;;;5036050;28;20205;-59
2022/05/08 01:42:48;;;;;;;11.90;4.97;;;9.00;99.90;;;;;;5036060;28;20216;-59
2022/05/08 01:45:15;;;;;;;11.52;5.72;;;8.90;99.90;;;;;;5036291;28;20200;-58
2022/05/08 01:50:26;;;;;;;9.63;4.85;;;8.80;99.90;;;;;;5035546;28;20185;-58
2022/05/08 01:52:53;;;;;;;14.80;4.40;;;8.70;99.90;;;;;;5035344;28;20208;-58
2022/05/08 01:55:22;;;;;;;14.43;4.70;;;8.70;99.90;;;;;;5035387;28;20314;-58
2022/05/08 01:57:49;;;;;;;12.05;4.97;;;8.60;99.90;;;;;;5035148;28;20219;-59
2022/05/08 02:00:16;;;;;;;19.88;5.00;;;8.50;99.90;;;;;;5035587;28;20252;-59
2022/05/08 02:02:48;;;;;;;19.80;6.85;;;8.50;99.90;;;;;;5035612;28;20209;-59
2022/05/08 02:05:15;;;;;;;13.20;4.80;;;8.50;99.90;;;;;;5035565;28;20187;-58
2022/05/08 02:07:44;;;;;;;22.27;5.70;;;8.40;99.90;;;;;;5035270;28;20264;-58
2022/05/08 02:10:11;;;;;;;16.85;5.65;;;8.40;99.90;;;;;;5035055;28;20643;-58
2022/05/08 02:12:39;;;;;;;11.90;4.88;;;8.30;99.90;;;;;;5035026;28;20205;-58
2022/05/08 02:15:08;;;;;;;14.73;5.68;;;8.20;99.90;;;;;;5035018;28;20284;-58
2022/05/08 02:17:35;;;;;;;18.40;5.15;;;8.20;99.90;;;;;;5034747;28;20724;-59
2022/05/08 02:20:03;;;;;;;16.17;5.15;;;8.20;99.90;;;;;;5035158;28;20206;-59
2022/05/08 02:22:30;;;;;;;14.82;5.00;;;8.10;99.90;;;;;;5034950;28;20206;-59
2022/05/08 02:24:57;;;;;;;18.70;5.07;;;8.10;99.90;;;;;;5035267;28;20210;-58
2022/05/08 02:27:24;;;;;;;16.90;5.70;;;8.00;99.90;;;;;;5035147;28;20226;-59
2022/05/08 02:29:53;;;;;;;16.48;5.28;;;8.00;99.90;;;;;;5035224;28;20202;-58
2022/05/08 02:32:20;;;;;;;19.45;5.82;;;8.00;99.90;;;;;;5034952;28;20206;-59
2022/05/08 02:34:47;;;;;;;12.57;4.93;;;7.90;99.90;;;;;;5035062;28;20238;-58
2022/05/08 02:37:14;;;;;;;14.30;5.47;;;7.90;99.90;;;;;;5034796;28;20235;-59
2022/05/08 02:39:43;;;;;;;17.45;5.75;;;7.90;99.90;;;;;;5035026;28;20208;-59
2022/05/08 02:42:12;;;;;;;15.80;4.82;;;7.80;99.90;;;;;;5034644;28;20239;-59
2022/05/08 02:44:39;;;;;;;16.75;5.25;;;7.80;99.90;;;;;;5035084;28;20596;-58
2022/05/08 02:47:08;;;;;;;17.02;4.97;;;7.80;99.90;;;;;;5034981;28;20219;-59
2022/05/08 02:49:35;;;;;;;14.77;5.00;;;7.80;99.90;;;;;;5033655;28;20205;-58
2022/05/08 02:52:02;;;;;;;17.27;5.70;;;7.70;99.90;;;;;;5034472;28;20207;-59
2022/05/08 02:54:29;;;;;;;13.68;5.82;;;7.70;99.90;;;;;;5034546;28;20206;-59
2022/05/08 02:59:40;;;;;;;13.43;4.57;;;7.70;99.90;;;;;;5034627;28;20198;-58
2022/05/08 03:02:09;;;;;;;14.55;5.75;;;7.60;99.90;;;;;;5034326;28;20206;-58
2022/05/08 03:04:36;;;;;;;12.65;5.63;;;7.60;99.90;;;;;;5034220;28;20289;-58
2022/05/08 03:07:04;;;;;;;16.55;5.45;;;7.60;99.90;;;;;;5034074;28;20230;-58
2022/05/08 03:09:31;;;;;;;24.60;5.45;;;7.50;99.90;;;;;;5034995;28;20220;-58
2022/05/08 03:11:58;;;;;;;19.90;5.70;;;7.50;99.90;;;;;;5035384;28;20206;-58
2022/05/08 03:14:25;;;;;;;9.75;5.95;;;7.50;99.90;;;;;;5034274;28;20213;-57
2022/05/08 03:16:52;;;;;;;13.40;5.03;;;7.50;99.90;;;;;;5035141;28;20245;-59
2022/05/08 03:19:21;;;;;;;12.73;5.30;;;7.40;99.90;;;;;;5034530;28;20202;-58
2022/05/08 03:21:51;;;;;;;17.63;5.70;;;7.40;99.90;;;;;;5034810;28;20231;-59
2022/05/08 03:24:18;;;;;;;11.60;5.00;;;7.40;99.90;;;;;;5033700;28;20697;-58
2022/05/08 03:26:45;;;;;;;18.35;5.35;;;7.40;99.90;;;;;;5033935;28;20222;-58
2022/05/08 03:29:12;;;;;;;14.23;5.43;;;7.40;99.90;;;;;;5033566;28;20205;-58
2022/05/08 03:31:40;;;;;;;16.55;5.50;;;7.30;99.90;;;;;;5033595;28;20199;-59
2022/05/08 03:34:07;;;;;;;11.70;4.68;;;7.30;99.90;;;;;;5033547;28;20200;-57
2022/05/08 03:36:36;;;;;;;18.98;4.88;;;7.30;99.90;;;;;;5033796;28;20237;-57
2022/05/08 03:39:03;;;;;;;22.63;7.32;;;7.30;99.90;;;;;;5033971;28;20198;-57
2022/05/08 03:41:30;;;;;;;14.25;5.18;;;7.30;99.90;;;;;;5034377;28;20553;-58
2022/05/08 03:43:57;;;;;;;12.57;5.13;;;7.30;99.90;;;;;;5034037;28;20208;-58
2022/05/08 03:46:25;;;;;;;16.50;6.20;;;7.20;99.90;;;;;;5033575;28;20598;-58
2022/05/08 03:48:53;;;;;;;10.90;4.32;;;7.30;99.90;;;;;;5034539;28;20293;-58
2022/05/08 03:51:20;;;;;;;13.30;5.60;;;7.20;99.90;;;;;;5033862;28;20209;-59
2022/05/08 03:53:48;;;;;;;22.52;4.90;;;7.30;99.90;;;;;;5033409;28;20706;-59
2022/05/08 03:56:16;;;;;;;12.15;4.97;;;7.20;99.90;;;;;;5033459;28;20718;-59
2022/05/08 03:58:44;;;;;;;11.73;4.25;;;7.30;99.90;;;;;;5033140;28;20207;-59
2022/05/08 04:01:11;;;;;;;13.77;5.18;;;7.30;99.90;;;;;;5033195;28;20685;-57
2022/05/08 04:03:38;;;;;;;10.60;4.93;;;7.30;99.90;;;;;;5033891;28;20322;-58
2022/05/08 04:09:44;;;;;;;15.35;5.60;;;7.30;99.90;;;;;;5091386;27;20990;-60
2022/05/08 04:12:11;;;;;;;15.30;4.55;;;7.30;99.90;;;;;;5091019;28;20196;-60
2022/05/08 04:14:38;;;;;;;18.42;5.93;;;7.40;99.90;;;;;;5091256;28;20197;-60
2022/05/08 04:17:05;;;;;;;16.67;5.25;;;7.50;99.90;;;;;;5090994;28;20229;-60
2022/05/08 04:19:32;;;;;;;11.05;4.70;;;7.70;99.90;;;;;;5092214;28;20202;-59
2022/05/08 04:24:43;;;;;;;10.63;4.35;;;8.10;99.90;;;;;;5091041;28;20278;-60
2022/05/08 04:27:11;;;;;;;10.57;4.88;;;8.40;99.90;;;;;;5091103;28;20220;-59
2022/05/08 04:29:38;;;;;;;9.68;4.80;;;8.60;99.90;;;;;;5090761;28;20254;-60
2022/05/08 04:32:05;;;;;;;15.80;5.20;;;8.70;99.90;;;;;;5092850;28;20196;-59
2022/05/08 04:34:32;;;;;;;16.77;4.25;;;8.80;99.90;;;;;;5101200;28;20200;-60
2022/05/08 04:36:59;;;;;;;15.65;6.45;;;9.00;99.90;;;;;;5100508;28;20220;-60
2022/05/08 04:39:27;;;;;;;13.35;4.10;;;9.10;99.90;;;;;;5099699;28;20657;-60
2022/05/08 04:41:55;;;;;;;19.77;4.78;;;9.10;99.90;;;;;;5098308;28;20197;-60
2022/05/08 04:44:22;;;;;;;8.60;4.20;;;9.10;99.90;;;;;;5097589;28;20203;-60
2022/05/08 04:46:49;;;;;;;11.63;4.70;;;9.10;99.90;;;;;;5096651;28;20217;-59
2022/05/08 04:49:16;;;;;;;13.60;4.70;;;9.20;99.90;;;;;;5092892;28;20219;-59
2022/05/08 04:51:43;;;;;;;12.70;4.45;;;9.20;99.90;;;;;;5091676;28;20449;-60
2022/05/08 04:54:10;;;;;;;10.55;4.28;;;9.30;99.90;;;;;;5090818;28;20207;-60
2022/05/08 04:56:37;;;;;;;10.03;4.70;;;9.30;99.90;;;;;;5090414;28;20223;-59
2022/05/08 04:59:06;;;;;;;13.33;4.77;;;9.40;99.90;;;;;;5090741;28;20445;-60
2022/05/08 05:01:34;;;;;;;15.83;4.47;;;9.60;99.90;;;;;;5090458;28;20514;-60
2022/05/08 05:04:01;;;;;;;15.63;4.50;;;9.70;98.40;;;;;;5090607;28;20533;-59
2022/05/08 05:06:28;;;;;;;13.60;4.33;;;9.70;98.10;;;;;;5092336;28;20472;-59
2022/05/08 05:08:55;;;;;;;15.40;4.10;;;9.90;97.80;;;;;;5095427;28;20586;-60
2022/05/08 05:11:22;;;;;;;15.00;4.20;;;9.90;96.40;;;;;;5094396;28;20478;-59
2022/05/08 05:13:49;;;;;;;9.93;4.33;;;9.90;95.80;;;;;;5096189;28;20458;-60
2022/05/08 05:16:18;;;;;;;7.00;3.73;;;9.90;95.40;;;;;;5094865;28;20449;-61
2022/05/08 05:18:45;;;;;;;13.33;3.30;;;9.90;95.10;;;;;;5090151;28;20442;-60
2022/05/08 05:21:12;;;;;;;15.57;3.70;;;9.90;94.60;;;;;;5075988;28;20462;-59
2022/05/08 05:23:39;;;;;;;11.90;4.60;;;9.90;94.50;;;;;;5076882;28;20454;-60
2022/05/08 05:26:06;;;;;;;9.07;3.90;;;10.00;93.70;;;;;;5076733;28;20856;-59
2022/05/08 05:28:33;;;;;;;11.80;4.10;;;10.10;93.60;;;;;;5076153;28;20475;-60
2022/05/08 05:31:00;;;;;;;8.90;3.80;;;10.10;92.50;;;;;;5076691;28;20461;-61
2022/05/08 05:33:29;;;;;;;10.63;3.47;;;10.10;92.40;;;;;;5075868;28;20531;-59
2022/05/08 05:35:56;;;;;;;9.77;3.30;;;10.20;92.50;;;;;;5076072;28;20453;-59
2022/05/08 05:38:23;;;;;;;8.63;4.07;;;10.20;91.80;;;;;;5076045;28;20458;-59
2022/05/08 05:40:50;;;;;;;14.07;4.07;;;10.30;91.60;;;;;;5076178;28;20454;-59
2022/05/08 05:43:17;;;;;;;12.37;4.00;;;10.30;91.50;;;;;;5076216;28;20798;-60
2022/05/08 05:45:44;;;;;;;10.33;3.73;;;10.40;91.20;;;;;;5075841;28;20443;-59
2022/05/08 05:48:10;;;;;;;12.10;4.70;;;10.40;91.20;;;;;;5075962;28;20482;-60
2022/05/08 05:50:38;;;;;;;12.57;4.43;;;10.30;90.80;;;;;;5076100;28;20450;-61
2022/05/08 05:53:06;;;;;;;16.60;4.40;;;10.30;90.90;;;;;;5075799;28;20439;-60
2022/05/08 05:55:33;;;;;;;16.30;3.83;;;10.40;90.90;;;;;;5075644;28;20935;-59
2022/05/08 05:58:00;;;;;;;12.97;3.60;;;10.40;90.60;;;;;;5075800;28;20826;-60
2022/05/08 06:00:27;;;;;;;12.10;3.80;;;10.40;89.50;;;;;;5075901;28;20521;-59
2022/05/08 06:02:54;;;;;;;13.93;3.20;;;10.30;88.00;;;;;;5075571;28;20475;-58
2022/05/08 06:05:22;;;;;;;10.37;3.50;;;10.10;88.00;;;;;;5075657;28;20444;-60
2022/05/08 06:07:50;;;;;;;8.60;2.87;;;10.10;88.60;;;;;;5075333;28;20489;-59
2022/05/08 06:10:17;;;;;;;26.70;3.73;;;10.20;88.40;;;;;;5075893;28;20455;-60
2022/05/08 06:12:44;;;;;;;17.00;4.20;;;10.30;87.80;;;;;;5075701;28;20451;-60
2022/05/08 06:15:12;;;;;;;8.90;3.53;;;10.30;86.20;;;;;;5075198;28;20439;-59
2022/05/08 06:17:39;;;;;;;9.80;3.30;;;10.30;85.20;;;;;;5075872;28;20486;-59
2022/05/08 06:20:07;;;;;;;4.93;2.40;;;10.30;84.90;;;;;;5076327;28;20451;-60
2022/05/08 06:22:35;;;;;;;18.63;3.40;;;10.20;84.60;;;;;;5077201;28;20473;-60
2022/05/08 06:25:04;;;;;;;10.10;3.53;;;10.30;84.50;;;;;;5077062;28;20445;-59
2022/05/08 06:27:31;;;;;;;14.17;3.40;;;10.30;84.00;;;;;;5077100;28;20483;-59
2022/05/08 06:29:58;;;;;;;9.87;3.50;;;10.40;83.70;;;;;;5076076;28;20482;-60
2022/05/08 06:32:26;;;;;;;10.00;3.10;;;10.40;83.20;;;;;;5079241;28;20504;-60
2022/05/08 06:34:53;;;;;;;8.93;2.63;;;10.40;82.90;;;;;;5078248;28;20454;-58
2022/05/08 06:37:20;;;;;;;9.57;3.33;;;10.40;82.90;;;;;;5076967;28;20469;-60
2022/05/08 06:39:47;;;;;;;9.10;3.53;;;10.50;82.90;;;;;;5076292;28;20799;-60
2022/05/08 06:42:15;;;;;;;8.10;3.47;;;10.50;82.40;;;;;;5075646;28;20945;-60
2022/05/08 06:44:43;;;;;;;10.63;3.90;;;10.50;82.50;;;;;;5076249;28;20453;-60
2022/05/08 06:47:10;;;;;;;7.40;3.10;;;10.50;82.60;;;;;;5075451;28;20553;-60
2022/05/08 06:49:37;;;;;;;11.60;4.35;;;10.40;82.50;;;;;;5075790;28;20575;-59
2022/05/08 06:52:05;;;;;;;10.53;3.00;;;10.40;82.30;;;;;;5075537;28;20675;-60
2022/05/08 06:54:32;;;;;;;11.03;3.60;;;10.50;82.30;;;;;;5075473;28;20446;-60
2022/05/08 06:56:59;;;;;;;12.10;2.83;;;10.50;82.00;;;;;;5075738;28;20472;-60
2022/05/08 07:02:13;;;;;;;6.40;2.77;;;10.60;81.80;;;;;;5075213;28;20436;-61
2022/05/08 07:04:40;;;;;;;7.70;3.40;;;10.80;81.30;;;;;;5074524;28;20457;-60
2022/05/08 07:07:07;;;;;;;7.17;2.83;;;10.80;80.60;;;;;;5075305;28;20476;-59
2022/05/08 07:09:35;;;;;;;9.50;3.30;;;10.80;80.20;;;;;;5077571;28;20517;-60
2022/05/08 07:12:02;;;;;;;7.93;3.20;;;10.80;80.20;;;;;;5075377;28;20537;-60
2022/05/08 07:14:31;;;;;;;14.47;3.40;;;11.00;80.10;;;;;;5076306;28;20452;-61
2022/05/08 07:17:00;;;;;;;14.63;3.67;;;11.00;79.10;;;;;;5075540;28;20456;-59
2022/05/08 07:19:27;;;;;;;12.67;3.77;;;11.10;78.50;;;;;;5075949;28;20452;-58
2022/05/08 07:21:54;;;;;;;17.13;3.47;;;11.20;77.50;;;;;;5076603;28;20442;-60
2022/05/08 07:24:21;;;;;;;8.63;3.73;;;11.40;77.10;;;;;;5076236;28;20453;-58
2022/05/08 07:26:48;;;;;;;11.80;3.60;;;11.50;76.60;;;;;;5075966;28;20482;-60
2022/05/08 07:29:16;;;;;;;8.93;3.70;;;11.70;75.90;;;;;;5074815;28;20507;-60
2022/05/08 07:31:44;;;;;;;11.93;3.40;;;11.80;75.00;;;;;;5074728;28;20446;-60
2022/05/08 07:36:56;;;;;;;10.13;2.77;;;11.90;73.70;;;;;;5074125;28;20505;-60
2022/05/08 07:39:23;;;;;;;8.93;2.93;;;12.00;73.50;;;;;;5074444;28;20449;-60
2022/05/08 07:41:51;;;;;;;9.77;3.40;;;12.10;72.30;;;;;;5074392;28;20462;-60
2022/05/08 07:44:18;;;;;;;6.73;2.73;;;12.10;70.70;;;;;;5074041;28;20492;-60
2022/05/08 07:46:47;;;;;;;13.63;3.33;;;12.10;69.90;;;;;;5077880;28;20466;-59
2022/05/08 07:49:14;;;;;;;7.77;3.30;;;12.10;69.00;;;;;;5079014;28;20489;-60
2022/05/08 07:51:41;;;;;;;6.50;3.33;;;12.10;68.10;;;;;;5078189;28;20927;-59
2022/05/08 07:54:08;;;;;;;6.10;2.90;;;12.10;66.70;;;;;;5077410;28;20443;-60
2022/05/08 07:56:35;;;;;;;6.67;3.10;;;12.20;66.20;;;;;;5076683;28;20820;-59
2022/05/08 07:59:02;;;;;;;10.30;3.00;;;12.30;65.50;;;;;;5075959;28;20478;-59
2022/05/08 08:01:29;;;;;;;8.97;2.37;;;12.30;64.20;;;;;;5076181;28;20497;-60
2022/05/08 08:03:58;;;;;;;5.70;2.30;;;12.40;63.40;;;;;;5076961;28;20451;-60
2022/05/08 08:06:25;;;;;;;4.77;1.87;;;12.50;62.60;;;;;;5075952;28;20796;-60
2022/05/08 08:08:52;;;;;;;6.80;2.90;;;12.60;62.10;;;;;;5076417;28;20482;-60
2022/05/08 08:11:20;;;;;;;6.10;2.93;;;12.70;61.40;;;;;;5079550;28;20446;-60
2022/05/08 08:13:48;;;;;;;6.67;2.90;;;12.80;60.60;;;;;;5074282;28;20458;-60
2022/05/08 08:16:15;;;;;;;5.83;2.40;;;12.80;60.40;;;;;;5073962;28;20930;-60
2022/05/08 08:18:43;;;;;;;5.30;2.57;;;12.70;60.80;;;;;;5074285;28;20443;-61
2022/05/08 08:21:14;;;;;;;6.30;3.10;;;12.80;61.30;;;;;;5074002;28;20453;-60
2022/05/08 08:23:42;;;;;;;6.73;2.90;;;12.90;61.30;;;;;;5074442;28;20832;-61
2022/05/08 08:26:11;;;;;;;11.07;3.07;;;12.90;60.80;;;;;;5075264;28;20451;-61
2022/05/08 08:28:39;;;;;;;6.87;2.60;;;13.00;60.80;;;;;;5073621;28;20828;-59
2022/05/08 08:31:06;;;;;;;8.20;2.83;;;13.00;60.70;;;;;;5073549;28;20927;-60
2022/05/08 08:33:34;;;;;;;5.70;2.30;;;13.10;60.50;;;;;;5073415;28;20442;-59
2022/05/08 08:36:01;;;;;;;5.53;2.10;;;13.20;59.90;;;;;;5073670;28;20469;-60
2022/05/08 08:38:29;;;;;;;7.00;2.77;;;13.30;59.30;;;;;;5073582;28;20446;-60
2022/05/08 08:41:02;;;;;;;9.80;2.70;;;13.50;59.00;;;;;;5073519;28;20450;-60
2022/05/08 08:43:30;;;;;;;6.10;2.30;;;13.70;58.30;;;;;;5073230;28;20826;-61
2022/05/08 08:48:50;;;;;;;4.57;2.00;;;13.80;57.10;;;;;;5074056;28;21013;-60
2022/05/08 08:51:17;;;;;;;7.70;2.67;;;13.80;56.20;;;;;;5073873;28;20428;-59
2022/05/08 08:53:47;;;;;;;8.03;2.47;;;13.80;55.70;;;;;;5073260;28;20454;-59
2022/05/08 08:56:17;;;;;;;9.60;2.83;;;13.80;55.30;;;;;;5077179;28;20435;-59
2022/05/08 08:58:45;;;;;;;6.50;2.40;;;13.80;54.70;;;;;;5079780;28;20431;-60
2022/05/08 09:01:15;;;;;;;5.27;2.30;;;13.70;53.60;;;;;;5078330;28;20454;-60
2022/05/08 09:03:42;;;;;;;4.70;2.33;;;13.70;53.70;;;;;;5077408;28;20450;-60
2022/05/08 09:06:10;;;;;;;8.13;2.23;;;13.70;53.70;;;;;;5078424;28;20540;-61
2022/05/08 09:08:37;;;;;;;4.00;2.23;;;14.00;53.40;;;;;;5078035;28;20463;-59
2022/05/08 09:11:06;;;;;;;6.40;2.43;;;14.20;52.90;;;;;;5079272;28;20478;-60
2022/05/08 09:13:34;;;;;;;7.77;2.80;;;14.30;52.40;;;;;;5077569;28;20469;-60
2022/05/08 09:16:03;;;;;;;4.30;2.73;;;14.40;51.90;;;;;;5077490;28;20851;-60
2022/05/08 09:18:30;;;;;;;6.17;2.00;;;14.40;51.90;;;;;;5076442;28;20935;-59
2022/05/08 09:21:54;;;;;;;8.20;2.40;;;14.50;51.80;;;;;;5077316;28;20442;-60
2022/05/08 09:23:47;;;;;;;9.50;2.50;;;14.50;51.60;;;;;;5077129;28;20439;-60
2022/05/08 09:26:26;;;;;;;7.50;2.40;;;14.60;51.90;;;;;;5076791;28;20439;-60
2022/05/08 09:28:53;;;;;;;9.77;2.67;;;14.60;52.00;;;;;;5076665;28;20427;-60
2022/05/08 09:31:21;;;;;;;5.90;2.00;;;14.70;51.90;;;;;;5076571;28;20458;-60
2022/05/08 09:33:49;;;;;;;5.00;2.10;;;14.80;51.70;;;;;;5076768;28;20482;-58
2022/05/08 09:36:19;;;;;;;8.57;3.33;;;14.80;51.40;;;;;;5076627;28;20457;-60
2022/05/08 09:38:49;;;;;;;8.50;2.50;;;14.80;51.00;;;;;;5076590;28;20794;-59
2022/05/08 09:41:20;;;;;;;5.40;2.60;;;14.70;51.40;;;;;;5075701;28;20931;-60
2022/05/08 09:43:47;;;;;;;8.03;2.63;;;14.60;51.50;;;;;;5076042;28;20450;-60
2022/05/08 09:46:15;;;;;;;6.47;2.53;;;14.60;51.30;;;;;;5075971;28;20447;-60
2022/05/08 09:48:42;;;;;;;5.33;2.20;;;14.60;51.20;;;;;;5076045;28;20451;-60
2022/05/08 09:51:10;;;;;;;7.67;2.57;;;14.70;51.20;;;;;;5075670;28;21017;-60
2022/05/08 09:53:39;;;;;;;7.30;2.50;;;14.80;50.90;;;;;;5075664;28;20439;-60
2022/05/08 09:56:08;;;;;;;4.97;3.00;;;14.90;50.30;;;;;;5075899;28;20442;-60
2022/05/08 09:58:38;;;;;;;8.00;1.77;;;15.00;49.50;;;;;;5076127;28;20451;-60
2022/05/08 10:01:05;;;;;;;4.93;2.07;;;15.10;49.50;;;;;;5076037;28;20522;-60
2022/05/08 10:03:32;;;;;;;10.90;2.77;;;15.20;49.50;;;;;;5076289;28;20443;-60
2022/05/08 10:06:01;;;;;;;4.97;2.20;;;15.30;49.30;;;;;;5075649;28;20844;-58
2022/05/08 10:08:30;;;;;;;10.37;2.73;;;15.40;49.20;;;;;;5076584;28;20482;-60
2022/05/08 10:13:56;;;;;;;4.80;2.13;;;15.30;48.20;;;;;;5075219;28;20407;-60
2022/05/08 10:16:55;;;;;;;8.03;2.50;;;15.40;47.10;;;;;;5076182;28;20463;-58
2022/05/08 10:19:46;;;;;;;6.63;2.20;;;15.40;46.50;;;;;;5076167;28;20431;-60
2022/05/08 10:22:14;;;;;;;7.87;2.50;;;15.30;46.60;;;;;;5072913;28;20486;-60
2022/05/08 10:24:46;;;;;;;5.47;2.40;;;15.50;47.10;;;;;;5076114;28;20938;-60
2022/05/08 10:27:15;;;;;;;6.60;2.50;;;15.70;47.40;;;;;;5076327;28;20466;-60
2022/05/08 10:30:06;;;;;;;8.87;2.60;;;15.90;47.60;;;;;;5076949;28;20485;-59
2022/05/08 10:32:55;;;;;;;4.93;2.20;;;16.00;47.50;;;;;;5076949;28;20458;-60
2022/05/08 10:35:23;;;;;;;5.97;2.70;;;16.20;47.80;;;;;;5078119;28;20466;-60
2022/05/08 10:37:51;;;;;;;6.40;2.10;;;16.20;47.00;;;;;;5083498;28;20481;-60
2022/05/08 10:40:35;;;;;;;4.67;2.23;;;16.30;46.70;;;;;;5082803;28;20443;-60
2022/05/08 10:43:32;;;;;;;5.23;2.30;;;16.20;45.90;;;;;;5078346;28;20431;-59
2022/05/08 10:46:23;;;;;;;10.07;2.60;;;16.10;46.20;;;;;;5077078;28;20628;-60
2022/05/08 10:48:51;;;;;;;4.03;2.10;;;16.10;46.50;;;;;;5075724;28;20451;-60
2022/05/08 10:51:18;;;;;;;8.97;2.70;;;16.10;46.30;;;;;;5074686;28;21028;-59
2022/05/08 10:53:46;;;;;;;6.73;2.37;;;16.20;46.00;;;;;;5074820;28;20435;-59
2022/05/08 10:56:14;;;;;;;4.73;2.20;;;16.10;45.50;;;;;;5074259;28;20455;-60
2022/05/08 10:58:52;;;;;;;6.23;2.30;;;16.00;45.20;;;;;;5074769;28;20451;-57
2022/05/08 11:01:19;;;;;;;5.90;2.43;;;16.00;45.00;;;;;;5074529;28;20427;-60
2022/05/08 11:03:47;;;;;;;8.43;2.60;;;16.10;44.90;;;;;;5075546;28;20446;-60
2022/05/08 11:06:21;;;;;;;6.80;2.07;;;16.10;45.10;;;;;;5074546;28;20970;-59
2022/05/08 11:08:48;;;;;;;5.13;2.27;;;16.20;45.00;;;;;;5077563;28;20459;-60
2022/05/08 11:11:15;;;;;;;5.97;2.37;;;16.10;44.60;;;;;;5079074;28;20526;-60
2022/05/08 11:13:43;;;;;;;7.57;2.50;;;16.10;44.80;;;;;;5079470;28;20453;-60
2022/05/08 11:16:12;;;;;;;6.47;2.50;;;16.20;44.60;;;;;;5076041;28;20451;-59
2022/05/08 11:18:40;;;;;;;6.83;2.53;;;16.30;44.40;;;;;;5074990;28;20447;-60
2022/05/08 11:21:11;;;;;;;4.87;2.20;;;16.30;44.60;;;;;;5075766;28;20552;-60
2022/05/08 11:23:44;;;;;;;4.80;2.37;;;16.30;44.80;;;;;;5074550;28;20463;-60
2022/05/08 11:26:12;;;;;;;4.70;2.50;;;16.40;45.40;;;;;;5074468;28;20540;-60
2022/05/08 11:28:48;;;;;;;6.10;2.30;;;16.40;45.70;;;;;;5074481;28;20816;-60
2022/05/08 11:31:16;;;;;;;5.23;2.67;;;16.50;45.60;;;;;;5076029;28;20466;-60
2022/05/08 11:36:31;;;;;;;4.53;1.90;;;16.70;45.20;;;;;;5079691;28;20501;-60
2022/05/08 11:38:59;;;;;;;7.83;2.30;;;16.80;44.70;;;;;;5080013;28;20926;-59
2022/05/08 11:41:28;;;;;;;6.70;2.30;;;16.90;44.10;;;;;;5078994;28;20445;-58
2022/05/08 11:43:56;;;;;;;5.87;2.03;;;17.20;43.70;;;;;;5080753;28;20458;-59
2022/05/08 11:46:34;;;;;;;4.50;2.13;;;17.40;42.50;;;;;;5081656;28;20488;-60
2022/05/08 11:49:02;;;;;;;6.93;2.67;;;17.60;41.80;;;;;;5079089;28;20423;-61
2022/05/08 11:51:42;;;;;;;3.77;1.90;;;17.90;41.60;;;;;;5074172;28;20486;-60
2022/05/08 11:54:32;;;;;;;5.80;2.20;;;18.50;40.80;;;;;;5074184;28;20466;-61
2022/05/08 11:57:14;;;;;;;4.83;2.00;;;19.00;39.40;;;;;;5074625;28;20467;-60
2022/05/08 11:59:43;;;;;;;4.00;2.30;;;19.40;38.80;;;;;;5074687;28;20446;-60
2022/05/08 12:02:10;;;;;;;5.10;2.10;;;19.70;37.60;;;;;;5074456;28;20443;-59
2022/05/08 12:04:38;;;;;;;2.60;1.60;;;20.00;36.80;;;;;;5074729;28;20981;-59
2022/05/08 12:07:07;;;;;;;4.67;2.10;;;20.20;35.70;;;;;;5074784;28;20478;-60
2022/05/08 12:09:36;;;;;;;5.17;2.27;;;20.50;35.50;;;;;;5074760;28;20874;-59
2022/05/08 12:12:26;;;;;;;4.60;2.10;;;20.80;35.20;;;;;;5074205;28;20549;-60
2022/05/08 12:14:54;;;;;;;4.13;2.13;;;20.90;35.10;;;;;;5074654;28;20485;-60
2022/05/08 12:17:21;;;;;;;4.87;1.87;;;21.00;34.90;;;;;;5073877;28;20521;-61
2022/05/08 12:19:53;;;;;;;5.17;1.87;;;21.10;33.90;;;;;;5073709;28;20451;-60
2022/05/08 12:22:24;;;;;;;5.23;1.83;;;21.10;32.70;;;;;;5073764;28;20492;-61
2022/05/08 12:24:51;;;;;;;4.80;1.90;;;21.30;32.30;;;;;;5081174;28;20439;-60
2022/05/08 12:27:18;;;;;;;4.60;1.77;;;21.10;31.30;;;;;;5080719;28;20482;-61
2022/05/08 12:29:46;;;;;;;6.77;1.87;;;20.60;29.80;;;;;;5082701;28;20451;-60
2022/05/08 12:32:14;;;;;;;3.07;1.80;;;20.00;29.90;;;;;;5084017;28;20435;-60
2022/05/08 12:34:41;;;;;;;5.30;1.97;;;19.70;30.00;;;;;;5085007;28;20451;-59
2022/05/08 12:37:10;;;;;;;3.47;1.60;;;19.40;30.00;;;;;;5086290;28;20463;-60
2022/05/08 12:39:38;;;;;;;3.13;1.73;;;19.30;30.50;;;;;;5085846;28;20439;-60
2022/05/08 12:42:06;;;;;;;4.93;2.23;;;19.10;30.50;;;;;;5082655;28;20468;-59
2022/05/08 12:44:34;;;;;;;3.07;1.67;;;18.70;30.30;;;;;;5081496;28;20451;-60
2022/05/08 12:47:02;;;;;;;8.53;2.03;;;18.60;30.80;;;;;;5080948;28;20522;-59
2022/05/08 12:49:29;;;;;;;6.80;1.77;;;18.50;31.50;;;;;;5078406;28;20469;-60
2022/05/08 12:51:56;;;;;;;4.17;1.83;;;18.50;31.20;;;;;;5077853;28;20487;-61
2022/05/08 12:54:23;;;;;;;3.33;1.90;;;18.40;31.30;;;;;;5077755;28;20443;-61
2022/05/08 12:56:52;;;;;;;4.07;2.17;;;18.60;31.20;;;;;;5078676;28;20473;-60
2022/05/08 13:02:04;;;;;;;4.60;2.20;;;18.70;30.30;;;;;;5080530;28;20402;-61
2022/05/08 13:04:31;;;;;;;10.10;2.23;;;18.80;30.50;;;;;;5078736;28;20446;-60
2022/05/08 13:06:58;;;;;;;3.27;2.20;;;18.90;30.80;;;;;;5078698;28;20463;-60
2022/05/08 13:09:25;;;;;;;4.43;1.80;;;18.80;31.40;;;;;;5078570;28;20458;-61
2022/05/08 13:11:53;;;;;;;4.27;2.07;;;18.80;32.00;;;;;;5077990;28;20482;-61
2022/05/08 13:14:20;;;;;;;7.13;2.30;;;18.80;32.40;;;;;;5077578;28;20446;-60
2022/05/08 13:16:47;;;;;;;6.10;2.00;;;18.70;32.60;;;;;;5077914;28;20459;-61
2022/05/08 13:19:14;;;;;;;5.83;2.03;;;18.60;31.90;;;;;;5076934;28;20473;-60
2022/05/08 13:21:42;;;;;;;3.50;2.00;;;18.60;31.50;;;;;;5077044;28;20443;-59